createdAt,value
2018-08-08T00:01:44.725Z,97966.95
2018-08-08T00:04:13.669Z,97965.92
2018-08-08T00:06:42.141Z,97966.14
2018-08-08T00:09:12.034Z,97970.47
2018-08-08T00:11:40.822Z,97980.06
2018-08-08T00:14:09.334Z,97971.41
2018-08-08T00:16:37.832Z,97980.66
2018-08-08T00:19:06.339Z,97979.17
2018-08-08T00:21:34.815Z,97977.27
2018-08-08T00:24:03.305Z,97973.70
2018-08-08T00:26:31.757Z,97968.39
2018-08-08T00:29:00.237Z,97962.52
2018-08-08T00:31:28.750Z,97963.41
2018-08-08T00:33:57.171Z,97960.17
2018-08-08T00:36:25.718Z,97957.15
2018-08-08T00:38:54.123Z,97959.72
2018-08-08T00:41:22.633Z,97962.03
2018-08-08T00:43:51.115Z,97974.67
2018-08-08T00:46:19.610Z,97984.69
2018-08-08T00:48:48.054Z,97991.22
2018-08-08T00:51:16.569Z,98001.53
2018-08-08T00:53:45.238Z,98018.67
2018-08-08T00:56:14.098Z,98026.81
2018-08-08T00:58:42.614Z,98037.48
2018-08-08T01:01:11.165Z,98034.03
2018-08-08T01:03:39.674Z,98036.05
2018-08-08T01:06:08.282Z,98040.04
2018-08-08T01:08:36.765Z,98055.30
2018-08-08T01:11:05.333Z,98075.72
2018-08-08T01:13:33.813Z,98073.14
2018-08-08T01:16:02.341Z,98076.36
2018-08-08T01:18:30.925Z,98056.69
2018-08-08T01:20:59.453Z,98067.70
2018-08-08T01:23:27.946Z,98089.00
2018-08-08T01:25:56.568Z,98134.05
2018-08-08T01:28:25.098Z,98162.22
2018-08-08T01:30:53.653Z,98143.94
2018-08-08T01:33:22.134Z,98120.08
2018-08-08T01:35:50.721Z,98113.86
2018-08-08T01:38:19.273Z,98130.34
2018-08-08T01:40:47.758Z,98095.39
2018-08-08T01:43:16.217Z,98099.24
2018-08-08T01:45:44.840Z,98108.45
2018-08-08T01:48:13.569Z,98115.26
2018-08-08T01:50:42.053Z,98124.02
2018-08-08T01:53:10.581Z,98116.63
2018-08-08T01:55:38.985Z,98137.88
2018-08-08T01:58:07.577Z,98169.63
2018-08-08T02:00:36.045Z,98164.78
2018-08-08T02:03:04.562Z,98192.20
2018-08-08T02:05:33.021Z,98189.60
2018-08-08T02:08:01.577Z,98177.88
2018-08-08T02:10:30.549Z,98205.13
2018-08-08T02:12:59.055Z,98214.12
2018-08-08T02:15:27.537Z,98222.74
2018-08-08T02:17:56.090Z,98213.30
2018-08-08T02:20:24.557Z,98212.34
2018-08-08T02:22:53.058Z,98218.72
2018-08-08T02:25:21.529Z,98211.30
2018-08-08T02:27:50.019Z,98208.13
2018-08-08T02:30:21.506Z,98204.30
2018-08-08T02:32:51.040Z,98199.06
2018-08-08T02:35:20.171Z,98202.94
2018-08-08T02:37:48.761Z,98208.27
2018-08-08T02:40:20.479Z,98205.14
2018-08-08T02:42:49.061Z,98218.34
2018-08-08T02:45:19.729Z,98217.20
2018-08-08T02:47:48.445Z,98236.34
2018-08-08T02:50:18.473Z,98236.05
2018-08-08T02:52:47.325Z,98241.55
2018-08-08T02:55:15.863Z,98251.52
2018-08-08T02:57:44.661Z,98255.60
2018-08-08T03:00:16.717Z,98270.38
2018-08-08T03:02:45.629Z,98275.73
2018-08-08T03:05:14.785Z,98292.59
2018-08-08T03:07:44.715Z,98305.92
2018-08-08T03:10:15.231Z,98305.92
2018-08-08T03:12:44.002Z,98313.87
2018-08-08T03:15:15.217Z,98316.39
2018-08-08T03:17:43.750Z,98315.89
2018-08-08T03:20:13.907Z,98317.97
2018-08-08T03:22:42.883Z,98326.23
2018-08-08T03:25:13.186Z,98336.75
2018-08-08T03:27:42.215Z,98331.17
2018-08-08T03:30:20.802Z,98330.53
2018-08-08T03:32:49.407Z,98330.96
2018-08-08T03:35:18.373Z,98330.44
2018-08-08T03:37:46.877Z,98324.77
2018-08-08T03:40:16.505Z,98328.88
2018-08-08T03:43:18.105Z,98334.75
2018-08-08T03:45:47.139Z,98332.23
2018-08-08T03:48:15.683Z,98337.56
2018-08-08T03:50:44.150Z,98349.18
2018-08-08T03:53:13.640Z,98348.34
2018-08-08T03:55:42.137Z,98352.11
2018-08-08T03:58:10.632Z,98362.48
2018-08-08T04:00:39.080Z,98357.54
2018-08-08T04:03:08.046Z,98351.67
2018-08-08T04:05:36.523Z,98366.85
2018-08-08T04:08:05.137Z,98360.68
2018-08-08T04:10:34.382Z,98350.17
2018-08-08T04:13:02.797Z,98347.98
2018-08-08T04:15:31.349Z,98347.31
2018-08-08T04:17:59.826Z,98342.40
2018-08-08T04:20:28.358Z,98333.17
2018-08-08T04:22:56.813Z,98331.67
2018-08-08T04:25:25.349Z,98327.36
2018-08-08T04:27:54.113Z,98325.28
2018-08-08T04:30:22.653Z,98327.28
2018-08-08T04:32:51.066Z,98327.28
2018-08-08T04:35:19.553Z,98336.20
2018-08-08T04:37:48.100Z,98340.06
2018-08-08T04:40:18.547Z,98333.59
2018-08-08T04:42:48.036Z,98328.03
2018-08-08T04:45:17.169Z,98325.23
2018-08-08T04:47:46.230Z,98317.36
2018-08-08T04:50:15.165Z,98314.14
2018-08-08T04:52:44.277Z,98310.92
2018-08-08T04:55:14.405Z,98313.53
2018-08-08T04:57:42.893Z,98312.69
2018-08-08T05:00:14.544Z,98320.77
2018-08-08T05:02:43.158Z,98315.73
2018-08-08T05:05:11.748Z,98313.34
2018-08-08T05:07:40.416Z,98305.72
2018-08-08T05:10:10.673Z,98303.09
2018-08-08T05:12:40.583Z,98294.30
2018-08-08T05:15:14.679Z,98300.80
2018-08-08T05:17:43.568Z,98300.17
2018-08-08T05:20:13.486Z,98284.03
2018-08-08T05:22:42.173Z,98280.14
2018-08-08T05:25:10.753Z,98275.09
2018-08-08T05:27:39.247Z,98280.66
2018-08-08T05:30:15.102Z,98290.53
2018-08-08T05:32:43.711Z,98294.92
2018-08-08T05:35:15.359Z,98287.88
2018-08-08T05:37:43.968Z,98294.05
2018-08-08T05:40:20.073Z,98306.20
2018-08-08T05:42:49.466Z,98314.58
2018-08-08T05:45:18.400Z,98321.30
2018-08-08T05:47:48.209Z,98330.30
2018-08-08T05:50:17.069Z,98330.55
2018-08-08T05:52:45.732Z,98329.78
2018-08-08T05:55:15.690Z,98337.91
2018-08-08T05:57:45.541Z,98338.05
2018-08-08T06:00:17.117Z,98342.52
2018-08-08T06:02:46.436Z,98349.52
2018-08-08T06:05:15.865Z,98362.77
2018-08-08T06:07:45.649Z,98371.05
2018-08-08T06:10:14.465Z,98371.08
2018-08-08T06:12:44.192Z,98367.81
2018-08-08T06:15:14.293Z,98369.41
2018-08-08T06:17:43.357Z,98368.41
2018-08-08T06:20:15.564Z,98367.83
2018-08-08T06:22:45.497Z,98365.59
2018-08-08T06:25:14.610Z,98367.35
2018-08-08T06:27:43.903Z,98376.17
2018-08-08T06:30:20.225Z,98373.55
2018-08-08T06:32:49.845Z,98380.18
2018-08-08T06:35:20.485Z,98383.36
2018-08-08T06:37:50.444Z,98388.02
2018-08-08T06:40:18.965Z,98395.33
2018-08-08T06:42:47.712Z,98402.34
2018-08-08T06:45:17.677Z,98395.78
2018-08-08T06:47:46.205Z,98397.23
2018-08-08T06:50:15.661Z,98402.30
2018-08-08T06:52:44.234Z,98407.45
2018-08-08T06:55:14.446Z,98413.02
2018-08-08T06:57:42.982Z,98419.85
2018-08-08T07:00:14.424Z,98430.64
2018-08-08T07:02:43.519Z,98430.30
2018-08-08T07:05:12.247Z,98429.05
2018-08-08T07:07:40.991Z,98432.38
2018-08-08T07:10:10.121Z,98427.03
2018-08-08T07:12:38.698Z,98434.52
2018-08-08T07:15:09.476Z,98436.67
2018-08-08T07:17:38.195Z,98431.98
2018-08-08T07:20:07.581Z,98431.09
2018-08-08T07:22:36.125Z,98423.95
2018-08-08T07:25:05.325Z,98434.12
2018-08-08T07:27:33.975Z,98438.98
2018-08-08T07:30:02.493Z,98432.44
2018-08-08T07:32:32.011Z,98447.91
2018-08-08T07:35:00.489Z,98446.14
2018-08-08T07:37:29.479Z,98452.37
2018-08-08T07:39:59.309Z,98439.78
2018-08-08T07:42:27.943Z,98432.29
2018-08-08T07:44:56.505Z,98432.52
2018-08-08T07:47:25.068Z,98433.48
2018-08-08T07:49:53.557Z,98424.15
2018-08-08T07:52:22.129Z,98424.22
2018-08-08T07:54:50.661Z,98424.15
2018-08-08T07:57:19.178Z,98427.34
2018-08-08T07:59:47.646Z,98427.64
2018-08-08T08:02:16.197Z,98432.37
2018-08-08T08:04:44.711Z,98423.68
2018-08-08T08:07:13.429Z,98422.96
2018-08-08T08:09:41.886Z,98430.16
2018-08-08T08:12:10.331Z,98427.60
2018-08-08T08:14:38.869Z,98424.55
2018-08-08T08:17:07.326Z,98429.60
2018-08-08T08:19:35.825Z,98431.49
2018-08-08T08:22:04.552Z,98430.71
2018-08-08T08:24:33.079Z,98430.83
2018-08-08T08:27:01.550Z,98429.77
2018-08-08T08:29:30.039Z,98434.53
2018-08-08T08:31:58.518Z,98432.72
2018-08-08T08:34:27.014Z,98440.84
2018-08-08T08:36:55.444Z,98443.00
2018-08-08T08:39:23.961Z,98440.30
2018-08-08T08:41:52.445Z,98443.23
2018-08-08T08:44:20.932Z,98434.92
2018-08-08T08:46:49.421Z,98442.45
2018-08-08T08:49:17.977Z,98437.05
2018-08-08T08:51:46.449Z,98442.39
2018-08-08T08:54:15.315Z,98431.87
2018-08-08T08:56:43.870Z,98436.41
2018-08-08T08:59:12.677Z,98431.77
2018-08-08T09:01:41.187Z,98440.02
2018-08-08T09:04:09.694Z,98435.12
2018-08-08T09:06:38.149Z,98435.02
2018-08-08T09:09:10.209Z,98437.08
2018-08-08T09:11:38.781Z,98433.91
2018-08-08T09:14:07.315Z,98438.30
2018-08-08T09:16:35.825Z,98439.85
2018-08-08T09:19:04.277Z,98444.78
2018-08-08T09:21:32.725Z,98435.95
2018-08-08T09:24:01.233Z,98440.50
2018-08-08T09:26:29.747Z,98440.17
2018-08-08T09:28:58.322Z,98438.21
2018-08-08T09:31:26.760Z,98442.19
2018-08-08T09:33:55.264Z,98433.64
2018-08-08T09:36:23.728Z,98434.79
2018-08-08T09:38:52.260Z,98437.38
2018-08-08T09:41:20.692Z,98438.97
2018-08-08T09:43:49.181Z,98438.55
2018-08-08T09:46:17.688Z,98437.85
2018-08-08T09:48:46.135Z,98437.09
2018-08-08T09:51:15.213Z,98440.09
2018-08-08T09:53:43.949Z,98437.20
2018-08-08T09:56:12.628Z,98437.26
2018-08-08T09:58:41.069Z,98430.30
2018-08-08T10:01:14.721Z,98439.37
2018-08-08T10:03:48.342Z,98436.37
2018-08-08T10:06:16.810Z,98430.84
2018-08-08T10:08:45.241Z,98429.70
2018-08-08T10:11:14.269Z,98423.35
2018-08-08T10:13:42.905Z,98426.85
2018-08-08T10:16:11.671Z,98435.88
2018-08-08T10:18:40.086Z,98434.43
2018-08-08T10:21:08.843Z,98435.98
2018-08-08T10:23:37.397Z,98428.84
2018-08-08T10:26:06.049Z,98428.92
2018-08-08T10:28:34.537Z,98434.22
2018-08-08T10:31:03.045Z,98436.83
2018-08-08T10:33:31.733Z,98434.63
2018-08-08T10:36:00.254Z,98430.37
2018-08-08T10:38:28.785Z,98443.70
2018-08-08T10:40:57.280Z,98441.90
2018-08-08T10:43:25.765Z,98439.73
2018-08-08T10:45:54.235Z,98432.02
2018-08-08T10:48:22.877Z,98435.67
2018-08-08T10:50:52.399Z,98425.91
2018-08-08T10:53:24.550Z,98428.38
2018-08-08T10:55:53.090Z,98428.56
2018-08-08T10:58:21.518Z,98426.76
2018-08-08T11:00:50.103Z,98425.09
2018-08-08T11:03:18.566Z,98429.77
2018-08-08T11:05:47.036Z,98432.83
2018-08-08T11:08:15.733Z,98435.53
2018-08-08T11:10:44.185Z,98433.48
2018-08-08T11:13:12.939Z,98432.62
2018-08-08T11:15:41.509Z,98438.53
2018-08-08T11:18:09.994Z,98434.87
2018-08-08T11:20:38.477Z,98439.14
2018-08-08T11:23:07.257Z,98442.27
2018-08-08T11:25:35.870Z,98444.50
2018-08-08T11:28:04.333Z,98443.05
2018-08-08T11:30:33.108Z,98443.25
2018-08-08T11:33:01.901Z,98442.25
2018-08-08T11:35:30.455Z,98444.11
2018-08-08T11:37:58.917Z,98438.20
2018-08-08T11:40:27.411Z,98442.42
2018-08-08T11:42:55.881Z,98445.84
2018-08-08T11:45:24.418Z,98454.58
2018-08-08T11:47:52.980Z,98445.78
2018-08-08T11:50:21.663Z,98449.93
2018-08-08T11:52:50.133Z,98441.99
2018-08-08T11:55:18.549Z,98437.27
2018-08-08T11:57:47.085Z,98433.41
2018-08-08T12:00:16.343Z,98425.64
2018-08-08T12:02:44.863Z,98415.64
2018-08-08T12:05:13.686Z,98412.64
2018-08-08T12:07:42.353Z,98405.42
2018-08-08T12:10:10.783Z,98400.06
2018-08-08T12:12:39.281Z,98404.19
2018-08-08T12:15:09.412Z,98405.30
2018-08-08T12:17:37.894Z,98409.72
2018-08-08T12:20:06.361Z,98394.64
2018-08-08T12:22:34.851Z,98396.99
2018-08-08T12:25:03.362Z,98398.77
2018-08-08T12:27:31.790Z,98389.40
2018-08-08T12:30:00.324Z,98396.84
2018-08-08T12:32:28.775Z,98385.48
2018-08-08T12:34:57.237Z,98391.22
2018-08-08T12:37:25.766Z,98390.20
2018-08-08T12:39:54.202Z,98390.96
2018-08-08T12:42:22.713Z,98398.63
2018-08-08T12:44:51.166Z,98386.46
2018-08-08T12:47:19.927Z,98375.23
2018-08-08T12:49:48.406Z,98376.23
2018-08-08T12:52:16.836Z,98380.70
2018-08-08T12:54:45.322Z,98379.53
2018-08-08T12:57:14.493Z,98377.36
2018-08-08T12:59:42.909Z,98365.16
2018-08-08T13:02:11.570Z,98366.88
2018-08-08T13:04:39.926Z,98359.73
2018-08-08T13:07:08.414Z,98362.29
2018-08-08T13:09:36.902Z,98357.58
2018-08-08T13:12:05.444Z,98359.52
2018-08-08T13:14:34.010Z,98342.30
2018-08-08T13:17:02.618Z,98350.40
2018-08-08T13:19:31.163Z,98341.92
2018-08-08T13:21:59.618Z,98338.55
2018-08-08T13:24:28.121Z,98337.84
2018-08-08T13:26:56.573Z,98333.22
2018-08-08T13:29:25.074Z,98342.21
2018-08-08T13:31:53.513Z,98334.57
2018-08-08T13:34:22.279Z,98333.63
2018-08-08T13:36:50.678Z,98341.30
2018-08-08T13:39:19.330Z,98335.56
2018-08-08T13:41:47.793Z,98336.28
2018-08-08T13:44:16.253Z,98338.30
2018-08-08T13:46:44.734Z,98331.47
2018-08-08T13:49:15.210Z,98318.05
2018-08-08T13:51:43.617Z,98314.91
2018-08-08T13:54:12.169Z,98316.86
2018-08-08T13:56:40.585Z,98310.88
2018-08-08T13:59:09.099Z,98312.50
2018-08-08T14:01:37.629Z,98310.69
2018-08-08T14:04:06.346Z,98307.27
2018-08-08T14:06:34.810Z,98296.58
2018-08-08T14:09:03.449Z,98294.34
2018-08-08T14:11:31.900Z,98291.45
2018-08-08T14:14:00.393Z,98301.73
2018-08-08T14:16:28.849Z,98298.22
2018-08-08T14:18:57.363Z,98289.14
2018-08-08T14:21:25.893Z,98280.44
2018-08-08T14:23:54.346Z,98288.30
2018-08-08T14:26:22.813Z,98284.91
2018-08-08T14:28:51.282Z,98283.62
2018-08-08T14:31:19.725Z,98286.55
2018-08-08T14:33:48.166Z,98274.27
2018-08-08T14:36:16.590Z,98266.53
2018-08-08T14:38:45.011Z,98263.10
2018-08-08T14:41:13.795Z,98274.31
2018-08-08T14:43:42.233Z,98277.05
2018-08-08T14:46:10.738Z,98269.52
2018-08-08T14:48:39.395Z,98269.17
2018-08-08T14:51:07.917Z,98278.71
2018-08-08T14:53:36.408Z,98282.53
2018-08-08T14:56:04.921Z,98286.30
2018-08-08T14:58:33.358Z,98277.19
2018-08-08T15:01:01.880Z,98272.34
2018-08-08T15:03:30.305Z,98263.41
2018-08-08T15:05:58.806Z,98266.39
2018-08-08T15:08:27.256Z,98260.06
2018-08-08T15:10:55.769Z,98264.28
2018-08-08T15:13:24.242Z,98255.95
2018-08-08T15:15:52.733Z,98263.09
2018-08-08T15:18:21.111Z,98270.56
2018-08-08T15:20:49.591Z,98252.62
2018-08-08T15:23:18.070Z,98244.59
2018-08-08T15:25:46.613Z,98230.44
2018-08-08T15:28:15.725Z,98223.64
2018-08-08T15:30:44.310Z,98225.25
2018-08-08T15:33:13.090Z,98230.54
2018-08-08T15:35:41.677Z,98244.48
2018-08-08T15:38:10.261Z,98252.41
2018-08-08T15:40:38.692Z,98252.14
2018-08-08T15:43:07.345Z,98243.56
2018-08-08T15:45:35.786Z,98246.13
2018-08-08T15:48:04.284Z,98263.52
2018-08-08T15:50:32.740Z,98282.62
2018-08-08T15:53:01.270Z,98274.84
2018-08-08T15:55:29.927Z,98261.72
2018-08-08T15:57:58.373Z,98255.39
2018-08-08T16:00:26.942Z,98248.24
2018-08-08T16:02:55.377Z,98267.33
2018-08-08T16:05:23.824Z,98274.27
2018-08-08T16:07:52.265Z,98276.16
2018-08-08T16:10:20.813Z,98278.77
2018-08-08T16:12:49.265Z,98293.60
2018-08-08T16:15:17.865Z,98308.23
2018-08-08T16:17:46.306Z,98311.13
2018-08-08T16:20:15.347Z,98313.02
2018-08-08T16:22:43.793Z,98307.05
2018-08-08T16:25:13.167Z,98325.48
2018-08-08T16:27:41.679Z,98335.36
2018-08-08T16:30:10.204Z,98343.47
2018-08-08T16:32:38.661Z,98349.75
2018-08-08T16:35:07.486Z,98339.41
2018-08-08T16:37:36.667Z,98346.84
2018-08-08T16:40:06.328Z,98343.41
2018-08-08T16:42:34.825Z,98355.92
2018-08-08T16:45:03.674Z,98358.56
2018-08-08T16:47:32.494Z,98362.64
2018-08-08T16:50:00.985Z,98358.05
2018-08-08T16:52:29.481Z,98359.92
2018-08-08T16:54:57.974Z,98358.57
2018-08-08T16:57:26.438Z,98353.92
2018-08-08T16:59:54.925Z,98354.87
2018-08-08T17:02:23.438Z,98351.89
2018-08-08T17:04:52.034Z,98355.39
2018-08-08T17:07:20.461Z,98348.83
2018-08-08T17:09:48.918Z,98349.16
2018-08-08T17:12:17.442Z,98360.54
2018-08-08T17:14:45.951Z,98366.89
2018-08-08T17:17:14.924Z,98389.36
2018-08-08T17:19:43.370Z,98395.50
2018-08-08T17:22:11.865Z,98399.10
2018-08-08T17:24:40.342Z,98390.73
2018-08-08T17:27:08.997Z,98391.24
2018-08-08T17:29:37.485Z,98384.80
2018-08-08T17:32:06.627Z,98389.60
2018-08-08T17:34:35.128Z,98381.16
2018-08-08T17:37:03.567Z,98382.53
2018-08-08T17:39:32.066Z,98391.45
2018-08-08T17:42:00.529Z,98401.52
2018-08-08T17:44:29.001Z,98395.72
2018-08-08T17:46:57.685Z,98392.37
2018-08-08T17:49:26.161Z,98401.41
2018-08-08T17:51:54.693Z,98406.31
2018-08-08T17:54:23.133Z,98416.59
2018-08-08T17:56:51.701Z,98414.72
2018-08-08T17:59:20.260Z,98414.95
2018-08-08T18:01:48.725Z,98414.70
2018-08-08T18:04:17.541Z,98408.42
2018-08-08T18:06:46.077Z,98408.98
2018-08-08T18:09:15.083Z,98425.73
2018-08-08T18:11:43.575Z,98433.30
2018-08-08T18:14:11.993Z,98435.98
2018-08-08T18:16:40.555Z,98443.55
2018-08-08T18:19:08.975Z,98441.61
2018-08-08T18:21:37.513Z,98442.89
2018-08-08T18:24:05.981Z,98438.83
2018-08-08T18:26:34.387Z,98440.23
2018-08-08T18:29:02.917Z,98440.30
2018-08-08T18:31:31.364Z,98433.58
2018-08-08T18:33:59.942Z,98438.34
2018-08-08T18:36:28.490Z,98432.45
2018-08-08T18:38:56.941Z,98436.21
2018-08-08T18:41:25.439Z,98436.31
2018-08-08T18:43:53.925Z,98431.92
2018-08-08T18:46:22.373Z,98430.59
2018-08-08T18:48:50.962Z,98420.10
2018-08-08T18:51:19.366Z,98424.19
2018-08-08T18:53:48.018Z,98427.24
2018-08-08T18:56:16.558Z,98434.28
2018-08-08T18:58:44.990Z,98433.44
2018-08-08T19:01:13.838Z,98427.89
2018-08-08T19:03:42.278Z,98422.30
2018-08-08T19:06:10.754Z,98415.36
2018-08-08T19:08:39.265Z,98411.88
2018-08-08T19:11:07.761Z,98420.45
2018-08-08T19:13:36.345Z,98426.66
2018-08-08T19:16:04.959Z,98427.80
2018-08-08T19:18:33.473Z,98435.53
2018-08-08T19:21:02.065Z,98435.98
2018-08-08T19:23:30.575Z,98441.31
2018-08-08T19:25:58.977Z,98444.15
2018-08-08T19:28:27.512Z,98440.34
2018-08-08T19:30:55.949Z,98442.64
2018-08-08T19:33:24.485Z,98440.56
2018-08-08T19:35:52.883Z,98441.81
2018-08-08T19:38:21.292Z,98443.40
2018-08-08T19:40:49.781Z,98442.50
2018-08-08T19:43:18.301Z,98437.05
2018-08-08T19:48:15.112Z,98434.41
2018-08-08T19:50:51.889Z,98421.42
2018-08-08T19:53:20.985Z,98429.98
2018-08-08T19:55:49.681Z,98429.48
2018-08-08T19:58:18.185Z,98425.41
2018-08-08T20:00:47.875Z,98442.75
2018-08-08T20:03:16.737Z,98436.58
2018-08-08T20:05:45.557Z,98425.94
2018-08-08T20:08:20.101Z,98415.84
2018-08-08T20:10:48.591Z,98411.33
2018-08-08T20:13:17.225Z,98412.03
2018-08-08T20:15:45.762Z,98413.34
2018-08-08T20:18:14.529Z,98408.06
2018-08-08T20:20:43.038Z,98405.69
2018-08-08T20:23:11.517Z,98411.53
2018-08-08T20:25:40.145Z,98413.55
2018-08-08T20:28:08.809Z,98409.53
2018-08-08T20:30:37.768Z,98408.30
2018-08-08T20:33:06.483Z,98401.37
2018-08-08T20:35:36.063Z,98405.57
2018-08-08T20:38:04.586Z,98407.98
2018-08-08T20:40:33.799Z,98415.52
2018-08-08T20:43:02.381Z,98407.12
2018-08-08T20:45:31.090Z,98411.20
2018-08-08T20:47:59.610Z,98410.84
2018-08-08T20:50:28.045Z,98413.41
2018-08-08T20:52:58.154Z,98411.69
2018-08-08T20:55:26.682Z,98409.85
2018-08-08T20:57:55.125Z,98414.10
2018-08-08T21:00:24.240Z,98417.77
2018-08-08T21:02:52.881Z,98422.41
2018-08-08T21:05:21.943Z,98426.16
2018-08-08T21:07:50.392Z,98424.86
2018-08-08T21:10:18.994Z,98425.63
2018-08-08T21:12:47.443Z,98429.59
2018-08-08T21:15:16.885Z,98422.54
2018-08-08T21:17:45.386Z,98422.84
2018-08-08T21:20:14.214Z,98417.34
2018-08-08T21:22:42.771Z,98422.91
2018-08-08T21:25:11.241Z,98416.73
2018-08-08T21:27:40.359Z,98413.55
2018-08-08T21:30:08.896Z,98415.71
2018-08-08T21:32:37.474Z,98417.53
2018-08-08T21:35:06.010Z,98417.38
2018-08-08T21:37:34.425Z,98416.48
2018-08-08T21:40:02.898Z,98408.47
2018-08-08T21:42:31.634Z,98402.93
2018-08-08T21:45:00.107Z,98396.98
2018-08-08T21:47:28.558Z,98407.73
2018-08-08T21:49:57.061Z,98405.39
2018-08-08T21:52:25.505Z,98403.64
2018-08-08T21:55:06.189Z,98396.53
2018-08-08T21:57:45.961Z,98392.72
2018-08-08T22:00:25.794Z,98406.72
2018-08-08T22:03:05.442Z,98405.23
2018-08-08T22:05:45.211Z,98399.06
2018-08-08T22:08:24.981Z,98393.06
2018-08-08T22:11:09.879Z,98390.22
2018-08-08T22:13:49.663Z,98383.92
2018-08-08T22:16:29.493Z,98373.13
2018-08-08T22:19:10.325Z,98372.11
2018-08-08T22:21:38.861Z,98369.34
2018-08-08T22:24:07.289Z,98377.80
2018-08-08T22:26:35.796Z,98376.54
2018-08-08T22:29:04.314Z,98370.33
2018-08-08T22:31:32.762Z,98373.02
2018-08-08T22:34:01.258Z,98376.31
2018-08-08T22:36:29.745Z,98373.54
2018-08-08T22:38:58.202Z,98366.66
2018-08-08T22:41:26.986Z,98363.35
2018-08-08T22:43:55.453Z,98367.30
2018-08-08T22:46:23.982Z,98366.34
2018-08-08T22:48:52.619Z,98367.80
2018-08-08T22:51:21.165Z,98373.11
2018-08-08T22:53:49.630Z,98373.54
2018-08-08T22:56:18.101Z,98382.38
2018-08-08T22:58:46.605Z,98385.87
2018-08-08T23:01:16.637Z,98381.11
2018-08-08T23:03:45.053Z,98383.85
2018-08-08T23:06:13.888Z,98385.39
2018-08-08T23:08:42.337Z,98386.63
2018-08-08T23:11:13.717Z,98386.97
2018-08-08T23:13:43.273Z,98392.31
2018-08-08T23:16:11.817Z,98390.64
2018-08-08T23:18:40.365Z,98392.15
2018-08-08T23:21:09.121Z,98389.94
2018-08-08T23:23:37.685Z,98378.44
2018-08-08T23:26:06.121Z,98363.60
2018-08-08T23:28:34.593Z,98360.31
2018-08-08T23:31:03.113Z,98350.68
2018-08-08T23:33:31.602Z,98351.12
2018-08-08T23:36:00.134Z,98349.69
2018-08-08T23:38:28.556Z,98347.19
2018-08-08T23:40:57.068Z,98342.72
2018-08-08T23:43:25.497Z,98346.32
2018-08-08T23:45:53.990Z,98337.55
2018-08-08T23:48:22.477Z,98339.80
2018-08-08T23:50:50.941Z,98339.53
2018-08-08T23:53:19.421Z,98337.39
2018-08-08T23:55:47.878Z,98344.17
2018-08-08T23:58:16.410Z,98348.38
